Time;durP1;ratioP1;P1;durP2;ratioP2;P2;SDS_P1;SDS_P2;PMS_P1;PMS_P2;Temp;Humidity;BMP_temperature;BMP_pressure;BME280_temperature;BME280_humidity;BME280_pressure;Samples;Min_cycle;Max_cycle;Signal;HPM_P1;HPM_P2
2022/10/13 00:00:17;;;;;;;29.80;11.65;;;;;;;7.23;79.35;101332.81;1712849;82;21075;-66
2022/10/13 00:02:47;;;;;;;33.33;12.55;;;;;;;7.24;79.34;101335.89;1711095;82;21099;-64
2022/10/13 00:05:17;;;;;;;25.25;11.38;;;;;;;7.24;79.36;101335.89;1711879;84;21529;-64
2022/10/13 00:07:46;;;;;;;24.20;11.15;;;;;;;7.26;79.29;101336.59;1711633;82;21012;-64
2022/10/13 00:10:17;;;;;;;23.98;10.70;;;;;;;7.26;79.37;101322.11;1711958;84;21087;-63
2022/10/13 00:12:46;;;;;;;22.90;10.68;;;;;;;7.26;79.52;101333.02;1711684;84;21031;-65
2022/10/13 00:15:17;;;;;;;22.10;10.68;;;;;;;7.25;79.72;101330.80;1711623;82;21047;-64
2022/10/13 00:17:48;;;;;;;29.48;11.12;;;;;;;7.24;79.88;101335.03;1710825;82;21020;-63
2022/10/13 00:20:17;;;;;;;25.32;11.08;;;;;;;7.22;80.05;101337.91;1711795;83;21060;-64
2022/10/13 00:22:46;;;;;;;25.80;11.48;;;;;;;7.22;80.11;101336.55;1711754;84;21444;-64
2022/10/13 00:25:16;;;;;;;25.72;11.57;;;;;;;7.22;80.15;101333.83;1712000;82;21019;-64
2022/10/13 00:27:48;;;;;;;27.37;12.20;;;;;;;7.25;80.23;101329.43;1711618;84;21186;-65
2022/10/13 00:30:18;;;;;;;29.18;13.03;;;;;;;7.28;80.25;101331.84;1711769;84;21067;-65
2022/10/13 00:32:48;;;;;;;29.37;12.00;;;;;;;7.30;80.23;101323.52;1711636;82;21052;-65
2022/10/13 00:35:17;;;;;;;29.40;11.65;;;;;;;7.35;80.10;101327.14;1711716;84;21066;-66
2022/10/13 00:37:47;;;;;;;27.55;11.25;;;;;;;7.36;79.97;101327.49;1711776;82;21063;-64
2022/10/13 00:40:17;;;;;;;27.22;12.25;;;;;;;7.37;80.02;101328.70;1711725;84;21012;-64
2022/10/13 00:42:48;;;;;;;25.88;12.18;;;;;;;7.39;79.99;101331.28;1711640;84;22086;-65
2022/10/13 00:45:22;;;;;;;26.52;12.20;;;;;;;7.37;79.91;101333.30;1711665;84;21047;-65
2022/10/13 00:47:56;;;;;;;24.85;10.98;;;;;;;7.38;79.89;101330.42;1711712;84;21039;-64
2022/10/13 00:50:37;;;;;;;27.77;11.53;;;;;;;7.39;79.85;101332.64;1711832;84;21020;-65
2022/10/13 00:53:07;;;;;;;23.42;11.20;;;;;;;7.36;79.95;101329.72;1711796;82;21127;-64
2022/10/13 00:55:38;;;;;;;27.35;11.30;;;;;;;7.29;80.14;101321.80;1706997;84;21067;-64
2022/10/13 00:58:09;;;;;;;26.90;11.57;;;;;;;7.29;80.47;101327.26;1707197;84;21035;-66
2022/10/13 01:00:40;;;;;;;26.12;10.32;;;;;;;7.30;80.69;101320.28;1711779;84;21044;-65
2022/10/13 01:03:11;;;;;;;27.93;10.90;;;;;;;7.35;80.77;101323.05;1724910;83;21101;-64
2022/10/13 01:05:42;;;;;;;31.40;12.88;;;;;;;7.37;80.78;101325.13;1728546;82;21580;-65
2022/10/13 01:08:14;;;;;;;34.55;14.05;;;;;;;7.36;80.80;101324.27;1725380;83;21059;-64
2022/10/13 01:11:04;;;;;;;35.85;14.53;;;;;;;7.37;80.71;101330.58;1722355;83;22002;-65
2022/10/13 01:14:06;;;;;;;31.40;14.15;;;;;;;7.34;80.73;101324.06;1699144;83;21066;-63
2022/10/13 01:16:57;;;;;;;30.15;14.07;;;;;;;7.37;80.71;101319.67;1724740;83;21039;-65
2022/10/13 01:19:58;;;;;;;27.37;12.35;;;;;;;7.39;80.63;101317.14;1707655;83;21081;-64
2022/10/13 01:22:51;;;;;;;28.80;11.73;;;;;;;7.39;80.47;101315.77;1699048;83;21149;-65
2022/10/13 01:25:37;;;;;;;28.50;12.98;;;;;;;7.41;80.54;101312.89;1725635;83;21126;-64
2022/10/13 01:28:32;;;;;;;27.60;12.00;;;;;;;7.44;80.53;101316.67;1729455;83;21093;-66
2022/10/13 01:31:17;;;;;;;27.80;11.90;;;;;;;7.48;80.49;101309.39;1726629;83;21082;-64
2022/10/13 01:34:11;;;;;;;29.15;12.23;;;;;;;7.49;80.38;101311.61;1725198;83;21050;-65
2022/10/13 01:37:11;;;;;;;26.12;9.90;;;;;;;7.51;80.40;101308.22;1708429;83;21062;-65
2022/10/13 01:39:53;;;;;;;30.25;11.03;;;;;;;7.55;80.40;101315.08;1725386;83;21045;-65
2022/10/13 01:42:40;;;;;;;29.70;11.95;;;;;;;7.60;80.42;101301.83;1725367;83;21094;-64
2022/10/13 01:45:11;;;;;;;27.35;11.40;;;;;;;7.61;80.49;101310.36;1729114;83;21619;-64
2022/10/13 01:47:42;;;;;;;25.27;11.12;;;;;;;7.61;80.58;101299.45;1725168;83;21110;-63
2022/10/13 01:50:11;;;;;;;24.47;11.08;;;;;;;7.60;80.60;101305.92;1727629;83;21023;-65
2022/10/13 01:52:41;;;;;;;29.42;11.65;;;;;;;7.56;80.67;101308.10;1728991;82;21505;-64
2022/10/13 01:55:12;;;;;;;28.00;11.73;;;;;;;7.54;80.65;101311.49;1722233;82;21039;-64
2022/10/13 01:57:44;;;;;;;30.10;12.18;;;;;;;7.53;80.58;101302.11;1722175;83;21015;-65
2022/10/13 02:00:19;;;;;;;26.02;12.05;;;;;;;7.50;80.44;101310.09;1722319;82;21098;-64
2022/10/13 02:03:14;;;;;;;27.27;12.18;;;;;;;7.47;80.45;101306.31;1713978;83;21483;-64
2022/10/13 02:05:55;;;;;;;26.62;11.75;;;;;;;7.47;80.42;101310.91;1703752;83;21107;-66
2022/10/13 02:08:46;;;;;;;30.62;12.33;;;;;;;7.46;80.34;101306.47;1700608;83;21071;-66
2022/10/13 02:11:23;;;;;;;29.12;12.85;;;;;;;7.44;80.33;101303.90;1701275;84;21075;-65
2022/10/13 02:14:12;;;;;;;28.70;12.47;;;;;;;7.43;80.27;101302.69;1686491;84;21056;-65
2022/10/13 02:16:43;;;;;;;24.82;11.33;;;;;;;7.46;80.43;101306.47;1701116;83;21036;-66
2022/10/13 02:19:15;;;;;;;28.80;11.65;;;;;;;7.48;80.38;101305.80;1703100;84;21576;-65
2022/10/13 02:21:45;;;;;;;26.25;11.65;;;;;;;7.52;80.36;101305.84;1702051;84;21049;-65
2022/10/13 02:24:17;;;;;;;25.10;11.10;;;;;;;7.54;80.30;101306.55;1704318;84;21529;-66
2022/10/13 02:26:49;;;;;;;23.83;10.93;;;;;;;7.57;80.21;101306.23;1701640;83;21083;-64
2022/10/13 02:29:21;;;;;;;25.52;11.48;;;;;;;7.60;80.06;101305.41;1702985;84;21499;-66
2022/10/13 02:31:53;;;;;;;23.50;11.38;;;;;;;7.63;79.93;101315.16;1699096;84;21027;-65
2022/10/13 02:34:24;;;;;;;26.48;11.83;;;;;;;7.66;79.87;101318.94;1703903;84;21055;-65
2022/10/13 02:36:55;;;;;;;28.47;11.53;;;;;;;7.68;79.79;101316.05;1708831;84;21126;-65
2022/10/13 02:39:25;;;;;;;27.07;11.10;;;;;;;7.68;79.67;101305.14;1700372;83;21239;-64
2022/10/13 02:41:55;;;;;;;31.17;11.50;;;;;;;7.67;79.66;101320.65;1699233;83;21452;-65
2022/10/13 02:44:26;;;;;;;24.50;10.95;;;;;;;7.70;79.67;101308.56;1707329;84;21028;-66
2022/10/13 02:46:55;;;;;;;25.20;10.75;;;;;;;7.72;79.60;101311.99;1688066;84;21080;-64
2022/10/13 02:49:24;;;;;;;27.05;11.12;;;;;;;7.72;79.58;101308.77;1704391;84;21079;-66
2022/10/13 02:51:54;;;;;;;25.30;11.73;;;;;;;7.72;79.58;101301.09;1699380;84;21060;-66
2022/10/13 02:54:24;;;;;;;21.15;10.32;;;;;;;7.71;79.65;101307.05;1699207;84;21032;-66
2022/10/13 02:56:53;;;;;;;25.77;10.75;;;;;;;7.68;79.71;101304.63;1687334;84;21067;-64
2022/10/13 02:59:22;;;;;;;26.60;11.48;;;;;;;7.68;79.81;101307.36;1705132;84;21111;-65
2022/10/13 03:01:52;;;;;;;29.18;11.10;;;;;;;7.68;79.90;101304.63;1704364;84;21095;-65
2022/10/13 03:04:24;;;;;;;24.50;11.25;;;;;;;7.70;79.90;101304.48;1705321;84;21048;-67
2022/10/13 03:06:55;;;;;;;25.48;10.85;;;;;;;7.71;79.80;101306.19;1708344;84;21035;-63
2022/10/13 03:09:25;;;;;;;21.23;10.50;;;;;;;7.70;79.81;101308.56;1708540;84;21048;-66
2022/10/13 03:11:55;;;;;;;23.40;10.35;;;;;;;7.70;79.86;101305.33;1703747;83;21091;-66
2022/10/13 03:14:25;;;;;;;22.20;10.13;;;;;;;7.72;79.81;101304.67;1701697;83;21044;-64
2022/10/13 03:16:55;;;;;;;21.30;10.38;;;;;;;7.73;79.74;101302.29;1708028;82;21118;-65
2022/10/13 03:19:24;;;;;;;25.20;11.05;;;;;;;7.74;79.66;101302.64;1685372;84;21039;-64
2022/10/13 03:21:54;;;;;;;25.17;10.70;;;;;;;7.74;79.64;101304.52;1707434;84;21020;-64
2022/10/13 03:24:23;;;;;;;24.07;10.38;;;;;;;7.76;79.60;101306.06;1703081;84;21036;-65
2022/10/13 03:26:52;;;;;;;23.38;10.30;;;;;;;7.79;79.61;101302.16;1699158;84;22150;-66
2022/10/13 03:29:22;;;;;;;21.55;10.13;;;;;;;7.84;79.51;101303.95;1686983;84;21059;-65
2022/10/13 03:31:51;;;;;;;25.43;9.80;;;;;;;7.85;79.47;101296.11;1703016;84;21052;-64
2022/10/13 03:34:23;;;;;;;22.58;10.45;;;;;;;7.83;79.49;101298.14;1703959;82;21048;-65
2022/10/13 03:36:54;;;;;;;20.32;10.10;;;;;;;7.81;79.54;101302.90;1701711;83;20992;-64
2022/10/13 03:39:25;;;;;;;21.27;9.78;;;;;;;7.80;79.68;101303.88;1707446;84;21027;-64
2022/10/13 03:41:55;;;;;;;17.27;8.75;;;;;;;7.81;79.66;101298.80;1704832;84;21031;-65
2022/10/13 03:44:25;;;;;;;18.90;9.33;;;;;;;7.81;79.66;101301.53;1700367;83;21545;-63
2022/10/13 03:46:56;;;;;;;20.23;9.20;;;;;;;7.79;79.69;101301.66;1708523;84;21168;-64
2022/10/13 03:49:25;;;;;;;23.40;10.10;;;;;;;7.80;79.81;101306.14;1704279;83;21020;-65
2022/10/13 03:51:54;;;;;;;25.75;11.90;;;;;;;7.82;79.82;101305.98;1703209;83;21024;-65
2022/10/13 03:54:23;;;;;;;20.02;10.65;;;;;;;7.82;79.83;101310.92;1706905;83;21063;-64
2022/10/13 03:56:55;;;;;;;25.50;10.68;;;;;;;7.83;79.75;101311.78;1682010;84;21063;-65
2022/10/13 03:59:24;;;;;;;21.65;10.63;;;;;;;7.86;79.68;101312.33;1701487;82;21044;-64
2022/10/13 04:01:53;;;;;;;23.22;10.85;;;;;;;7.89;79.73;101320.19;1707544;83;21087;-66
2022/10/13 04:04:23;;;;;;;20.25;10.30;;;;;;;7.92;79.70;101315.78;1699040;83;21055;-64
2022/10/13 04:06:56;;;;;;;26.60;10.93;;;;;;;7.94;79.73;101315.63;1703890;84;21076;-64
2022/10/13 04:09:27;;;;;;;22.73;10.45;;;;;;;7.94;79.78;101314.27;1704276;84;21032;-64
2022/10/13 04:11:58;;;;;;;22.82;9.90;;;;;;;7.95;79.84;101315.98;1703586;84;21079;-65
2022/10/13 04:14:27;;;;;;;20.77;9.53;;;;;;;7.95;79.88;101320.92;1701784;84;21089;-64
2022/10/13 04:16:59;;;;;;;21.57;9.58;;;;;;;7.97;79.97;101320.77;1703614;84;21262;-65
2022/10/13 04:19:31;;;;;;;19.25;8.70;;;;;;;8.00;80.05;101326.42;1692693;84;21123;-63
2022/10/13 04:22:02;;;;;;;19.48;9.50;;;;;;;8.00;80.11;101329.15;1706265;83;21024;-65
2022/10/13 04:24:33;;;;;;;21.27;8.90;;;;;;;7.98;80.07;101320.27;1701384;83;21107;-64
2022/10/13 04:27:02;;;;;;;23.18;9.13;;;;;;;7.98;80.03;101327.08;1708382;82;21090;-67
2022/10/13 04:29:32;;;;;;;20.55;9.15;;;;;;;7.98;80.02;101318.89;1703586;84;20990;-64
2022/10/13 04:32:03;;;;;;;20.48;8.80;;;;;;;7.97;80.00;101321.27;1702944;84;21041;-65
2022/10/13 04:34:32;;;;;;;20.20;8.88;;;;;;;7.94;80.02;101316.99;1699190;83;21044;-64
2022/10/13 04:37:01;;;;;;;19.35;8.55;;;;;;;7.91;80.15;101318.67;1702971;84;21056;-64
2022/10/13 04:39:32;;;;;;;19.73;8.55;;;;;;;7.89;80.24;101317.47;1703277;84;21005;-65
2022/10/13 04:42:01;;;;;;;23.27;8.48;;;;;;;7.87;80.35;101316.77;1699165;84;21087;-66
2022/10/13 04:44:31;;;;;;;19.02;7.97;;;;;;;7.91;80.38;101319.53;1699528;84;21024;-64
2022/10/13 04:47:01;;;;;;;18.30;8.15;;;;;;;7.95;80.38;101322.80;1703050;84;21091;-66
2022/10/13 04:49:31;;;;;;;19.40;8.43;;;;;;;7.95;80.34;101323.66;1703534;84;21016;-65
2022/10/13 04:52:02;;;;;;;30.60;17.32;;;;;;;7.95;80.28;101323.66;1706117;83;21127;-65
2022/10/13 04:54:31;;;;;;;17.98;8.28;;;;;;;7.97;80.30;101328.09;1699465;84;21032;-66
2022/10/13 04:57:00;;;;;;;17.95;7.87;;;;;;;7.99;80.23;101320.10;1706860;83;21712;-65
2022/10/13 04:59:30;;;;;;;18.32;8.30;;;;;;;8.02;80.19;101325.24;1704611;84;21056;-65
2022/10/13 05:01:59;;;;;;;22.25;8.78;;;;;;;8.05;80.19;101328.16;1682814;84;21115;-65
2022/10/13 05:04:29;;;;;;;21.15;8.35;;;;;;;8.06;80.20;101324.42;1708562;82;21541;-65
2022/10/13 05:07:00;;;;;;;18.25;8.30;;;;;;;8.07;80.26;101326.13;1704374;83;21012;-67
2022/10/13 05:09:32;;;;;;;22.37;7.90;;;;;;;8.09;80.19;101337.23;1702965;83;21468;-66
2022/10/13 05:12:02;;;;;;;21.97;9.48;;;;;;;8.11;80.13;101342.03;1702996;84;21086;-65
2022/10/13 05:14:33;;;;;;;26.93;9.93;;;;;;;8.15;80.16;101335.75;1699425;83;21111;-64
2022/10/13 05:17:04;;;;;;;21.48;8.98;;;;;;;8.21;80.19;101344.66;1706544;82;21063;-65
2022/10/13 05:19:34;;;;;;;18.30;8.73;;;;;;;8.24;80.17;101347.08;1701765;83;21059;-66
2022/10/13 05:22:04;;;;;;;26.17;8.60;;;;;;;8.26;80.13;101347.77;1703913;84;21039;-66
2022/10/13 05:24:37;;;;;;;23.80;8.58;;;;;;;8.28;80.16;101351.20;1705392;84;21044;-64
2022/10/13 05:27:10;;;;;;;18.40;8.13;;;;;;;8.31;80.13;101344.56;1704201;84;21090;-65
2022/10/13 05:29:39;;;;;;;17.10;7.37;;;;;;;8.36;80.13;101354.02;1704390;84;21533;-66
2022/10/13 05:32:08;;;;;;;19.15;8.73;;;;;;;8.40;80.06;101351.31;1700870;83;21048;-67
2022/10/13 05:34:37;;;;;;;20.32;8.63;;;;;;;8.43;80.03;101348.27;1702567;84;21088;-64
2022/10/13 05:37:06;;;;;;;20.40;8.98;;;;;;;8.43;79.97;101353.73;1702832;83;21086;-66
2022/10/13 05:39:36;;;;;;;21.73;9.00;;;;;;;8.41;79.98;101355.77;1683628;84;21051;-65
2022/10/13 05:42:08;;;;;;;22.62;8.60;;;;;;;8.44;80.03;101355.44;1705031;84;21460;-67
2022/10/13 05:44:38;;;;;;;21.27;9.80;;;;;;;8.46;79.86;101355.31;1704450;84;21013;-65
2022/10/13 05:47:07;;;;;;;26.45;9.20;;;;;;;8.47;79.79;101360.62;1706141;84;21114;-64
2022/10/13 05:49:39;;;;;;;21.70;9.00;;;;;;;8.49;79.78;101357.72;1704227;84;21535;-65
2022/10/13 05:52:10;;;;;;;25.80;9.43;;;;;;;8.51;79.66;101363.38;1703179;84;21056;-65
2022/10/13 05:54:46;;;;;;;25.82;9.13;;;;;;;8.51;79.57;101361.16;1699847;84;21055;-65
2022/10/13 05:57:23;;;;;;;23.85;8.65;;;;;;;8.51;79.52;101367.98;1702124;84;21526;-66
2022/10/13 06:00:00;;;;;;;21.55;9.30;;;;;;;8.55;79.43;101363.91;1704305;83;22034;-67
2022/10/13 06:02:33;;;;;;;19.80;7.90;;;;;;;8.55;79.35;101359.30;1704665;82;21013;-66
2022/10/13 06:05:04;;;;;;;22.48;10.30;;;;;;;8.55;79.28;101363.40;1640097;86;21091;-66
2022/10/13 06:07:34;;;;;;;26.65;11.30;;;;;;;8.58;79.23;101359.48;1648257;86;21500;-65
2022/10/13 06:10:03;;;;;;;26.02;10.03;;;;;;;8.60;79.09;101361.55;1653457;86;21110;-66
2022/10/13 06:12:34;;;;;;;26.00;9.48;;;;;;;8.63;78.96;101359.00;1653046;86;21067;-64
2022/10/13 06:15:05;;;;;;;25.88;10.10;;;;;;;8.66;78.81;101360.05;1653010;86;21106;-65
2022/10/13 06:17:37;;;;;;;26.02;10.23;;;;;;;8.69;78.73;101360.58;1648347;86;21088;-67
2022/10/13 06:20:09;;;;;;;26.27;10.08;;;;;;;8.73;78.67;101361.11;1656680;86;21200;-66
2022/10/13 06:22:39;;;;;;;24.63;10.28;;;;;;;8.76;78.59;101364.89;1663665;84;21056;-66
2022/10/13 06:25:09;;;;;;;29.48;10.10;;;;;;;8.78;78.54;101358.23;1707420;84;21091;-65
2022/10/13 06:27:40;;;;;;;23.02;9.40;;;;;;;8.83;78.39;101367.31;1705916;84;21012;-67
2022/10/13 06:30:10;;;;;;;28.52;10.32;;;;;;;8.87;78.23;101367.33;1699468;84;21024;-66
2022/10/13 06:32:41;;;;;;;21.70;9.80;;;;;;;8.90;78.12;101368.38;1701698;84;21298;-67
2022/10/13 06:35:11;;;;;;;30.17;11.05;;;;;;;8.94;78.10;101371.64;1699207;84;21028;-65
2022/10/13 06:37:42;;;;;;;26.77;10.55;;;;;;;8.96;77.91;101368.23;1684239;84;21103;-63
2022/10/13 06:40:13;;;;;;;35.68;11.40;;;;;;;8.98;77.80;101371.14;1703051;84;21063;-65
2022/10/13 06:42:49;;;;;;;28.83;10.05;;;;;;;9.04;77.77;101371.00;1689473;84;21019;-65
2022/10/13 06:45:20;;;;;;;23.77;10.03;;;;;;;9.10;77.65;101373.97;1700441;84;21028;-67
2022/10/13 06:47:49;;;;;;;30.30;10.40;;;;;;;9.18;77.56;101375.87;1699094;83;21103;-66
2022/10/13 06:50:18;;;;;;;40.78;11.90;;;;;;;9.24;77.45;101372.48;1705494;82;21086;-64
2022/10/13 06:52:49;;;;;;;27.48;10.65;;;;;;;9.31;77.30;101381.74;1687429;84;21059;-66
2022/10/13 06:55:18;;;;;;;33.13;11.48;;;;;;;9.36;77.11;101379.36;1704776;83;21484;-64
2022/10/13 06:57:49;;;;;;;25.50;9.45;;;;;;;9.42;76.92;101375.11;1707012;83;21102;-65
2022/10/13 07:00:18;;;;;;;20.88;8.53;;;;;;;9.49;76.77;101375.64;1698894;84;21071;-66
2022/10/13 07:02:51;;;;;;;28.90;9.18;;;;;;;9.55;76.55;101375.48;1702983;84;21040;-66
2022/10/13 07:05:20;;;;;;;21.50;8.93;;;;;;;9.61;76.33;101378.92;1710417;84;21091;-65
2022/10/13 07:07:53;;;;;;;24.15;8.73;;;;;;;9.66;76.14;101373.80;1711788;84;21329;-64
2022/10/13 07:10:23;;;;;;;23.52;10.30;;;;;;;9.72;75.95;101371.75;1711774;84;21087;-66
2022/10/13 07:12:53;;;;;;;26.97;10.75;;;;;;;9.78;75.82;101371.63;1712022;84;21080;-65
2022/10/13 07:15:24;;;;;;;31.90;10.20;;;;;;;9.82;75.60;101371.12;1711846;84;21024;-66
2022/10/13 07:17:54;;;;;;;32.28;10.32;;;;;;;9.88;75.46;101368.73;1711824;82;21489;-65
2022/10/13 07:20:24;;;;;;;32.60;10.85;;;;;;;9.93;75.28;101370.45;1711666;84;21031;-65
2022/10/13 07:22:54;;;;;;;27.62;10.58;;;;;;;9.97;75.30;101366.34;1711594;84;21297;-65
2022/10/13 07:25:27;;;;;;;31.37;11.12;;;;;;;10.01;75.30;101368.56;1692951;84;21023;-65
2022/10/13 07:27:58;;;;;;;30.35;11.35;;;;;;;10.07;75.21;101361.55;1711696;84;21507;-63
2022/10/13 07:30:28;;;;;;;32.23;11.33;;;;;;;10.12;75.04;101362.75;1691456;84;21063;-65
2022/10/13 07:32:59;;;;;;;36.10;12.23;;;;;;;10.15;74.81;101361.55;1711882;84;21019;-65
2022/10/13 07:35:29;;;;;;;27.95;11.05;;;;;;;10.18;74.69;101364.80;1711669;84;21110;-65
2022/10/13 07:38:00;;;;;;;28.23;11.43;;;;;;;10.24;74.60;101370.14;1711620;84;21062;-65
2022/10/13 07:40:30;;;;;;;25.30;11.35;;;;;;;10.28;74.47;101367.91;1711656;82;20988;-65
2022/10/13 07:43:00;;;;;;;29.52;11.43;;;;;;;10.30;74.34;101368.59;1709081;84;21106;-66
2022/10/13 07:45:30;;;;;;;26.57;11.18;;;;;;;10.32;74.33;101374.24;1708807;84;21501;-66
2022/10/13 07:47:59;;;;;;;27.32;11.45;;;;;;;10.35;74.20;101365.68;1701667;82;21043;-66
2022/10/13 07:50:29;;;;;;;32.90;11.50;;;;;;;10.38;73.97;101372.19;1708882;84;21063;-65
2022/10/13 07:52:58;;;;;;;25.95;10.82;;;;;;;10.42;73.88;101372.73;1711651;84;21501;-67
2022/10/13 07:55:28;;;;;;;32.13;11.35;;;;;;;10.47;73.82;101373.06;1711280;84;21059;-65
2022/10/13 07:58:02;;;;;;;29.55;11.30;;;;;;;10.53;73.77;101373.73;1702819;84;21455;-66
2022/10/13 08:00:34;;;;;;;28.12;11.25;;;;;;;10.59;73.61;101376.30;1687700;84;21070;-64
2022/10/13 08:03:04;;;;;;;25.75;10.95;;;;;;;10.63;73.64;101377.66;1672933;84;21035;-65
2022/10/13 08:05:38;;;;;;;24.67;10.82;;;;;;;10.68;73.24;101373.88;1723006;83;21098;-65
2022/10/13 08:08:06;;;;;;;26.57;11.15;;;;;;;10.72;72.93;101377.98;1724948;83;21624;-63
2022/10/13 08:10:36;;;;;;;24.37;10.05;;;;;;;10.77;72.77;101372.31;1722026;82;21043;-65
2022/10/13 08:13:06;;;;;;;24.40;8.88;;;;;;;10.83;72.58;101375.38;1709702;83;21181;-66
2022/10/13 08:15:37;;;;;;;22.98;9.88;;;;;;;10.89;73.05;101371.42;1729065;81;21110;-68
2022/10/13 08:18:08;;;;;;;24.87;10.05;;;;;;;10.97;72.60;101376.88;1699567;83;21086;-65
2022/10/13 08:20:41;;;;;;;27.93;9.90;;;;;;;11.03;72.21;101378.06;1723096;83;21016;-66
2022/10/13 08:23:13;;;;;;;26.87;11.45;;;;;;;11.08;71.75;101375.16;1728343;83;21058;-67
2022/10/13 08:25:44;;;;;;;27.35;12.13;;;;;;;11.13;71.51;101372.40;1722925;82;21078;-66
2022/10/13 08:28:24;;;;;;;31.20;13.05;;;;;;;11.16;71.40;101374.78;1726683;83;21066;-64
2022/10/13 08:30:58;;;;;;;38.58;12.53;;;;;;;11.19;71.18;101371.69;1726764;83;21031;-65
2022/10/13 08:33:28;;;;;;;26.48;11.38;;;;;;;11.22;71.13;101378.19;1724809;83;21030;-67
2022/10/13 08:35:57;;;;;;;33.13;12.95;;;;;;;11.25;71.02;101377.84;1721939;83;21431;-65
2022/10/13 08:38:27;;;;;;;30.72;12.95;;;;;;;11.27;70.87;101375.25;1725114;83;21039;-64
2022/10/13 08:40:57;;;;;;;32.90;12.58;;;;;;;11.28;70.73;101379.70;1729464;83;21035;-65
2022/10/13 08:43:26;;;;;;;37.03;13.35;;;;;;;11.31;70.58;101376.61;1684160;84;21111;-64
2022/10/13 08:45:59;;;;;;;33.92;12.85;;;;;;;11.33;70.32;101373.69;1680009;84;21118;-65
2022/10/13 08:48:32;;;;;;;27.55;11.65;;;;;;;11.38;70.36;101374.00;1683159;84;21044;-65
2022/10/13 08:51:02;;;;;;;31.27;11.08;;;;;;;11.44;70.46;101373.28;1682121;85;21026;-65
2022/10/13 08:53:38;;;;;;;31.37;11.57;;;;;;;11.50;70.00;101378.56;1675160;84;21072;-66
2022/10/13 08:56:21;;;;;;;29.92;11.68;;;;;;;11.53;69.77;101372.20;1687531;85;21388;-65
2022/10/13 08:58:53;;;;;;;32.55;12.30;;;;;;;11.58;69.76;101376.63;1676974;85;21047;-66
2022/10/13 09:01:26;;;;;;;35.83;12.60;;;;;;;11.65;69.70;101380.36;1687850;84;21091;-64
2022/10/13 09:04:32;;;;;;;36.45;12.65;;;;;;;11.71;69.41;101374.70;1674966;85;21024;-67
2022/10/13 09:07:22;;;;;;;34.83;14.65;;;;;;;11.74;69.27;101380.68;1707339;84;21129;-65
2022/10/13 09:09:54;;;;;;;26.87;12.33;;;;;;;11.77;69.06;101381.36;1706555;83;21476;-65
2022/10/13 09:12:25;;;;;;;35.80;12.93;;;;;;;11.80;69.07;101376.91;1704309;84;21047;-65
2022/10/13 09:15:08;;;;;;;33.28;12.73;;;;;;;11.85;69.05;101384.94;1703218;84;21065;-67
2022/10/13 09:17:39;;;;;;;32.40;12.82;;;;;;;11.92;68.83;101382.31;1711683;84;21126;-65
2022/10/13 09:20:22;;;;;;;34.08;12.90;;;;;;;11.97;68.62;101379.36;1707041;84;21000;-65
2022/10/13 09:23:20;;;;;;;40.90;13.05;;;;;;;12.02;68.44;101382.92;1704466;84;21028;-68
2022/10/13 09:25:51;;;;;;;36.00;13.05;;;;;;;12.05;68.14;101380.66;1705201;84;21102;-66
2022/10/13 09:28:29;;;;;;;30.75;12.00;;;;;;;12.10;68.07;101378.73;1707159;84;21094;-64
2022/10/13 09:31:02;;;;;;;32.45;12.07;;;;;;;12.14;68.13;101374.59;1707148;84;21087;-65
2022/10/13 09:33:35;;;;;;;28.42;10.98;;;;;;;12.20;68.10;101372.99;1687198;84;21075;-67
2022/10/13 09:36:12;;;;;;;28.55;12.23;;;;;;;12.26;67.46;101379.13;1707407;84;21071;-66
2022/10/13 09:38:46;;;;;;;24.92;9.08;;;;;;;12.26;67.26;101371.73;1687126;84;21013;-65
2022/10/13 09:41:20;;;;;;;19.45;7.08;;;;;;;12.31;66.94;101368.43;1702910;84;21040;-66
2022/10/13 09:43:55;;;;;;;18.60;6.97;;;;;;;12.34;66.10;101365.31;1701782;84;21546;-68
2022/10/13 09:46:48;;;;;;;24.65;6.90;;;;;;;12.34;65.50;101362.05;1706136;84;21684;-66
2022/10/13 09:49:43;;;;;;;19.95;6.70;;;;;;;12.36;65.26;101364.12;1707800;84;21075;-68
2022/10/13 09:52:16;;;;;;;20.92;7.37;;;;;;;12.38;64.99;101365.30;1704631;83;21054;-67
2022/10/13 09:54:52;;;;;;;18.55;7.90;;;;;;;12.39;64.83;101358.77;1713715;82;21079;-67
2022/10/13 09:57:46;;;;;;;18.98;7.53;;;;;;;12.46;64.72;101357.50;1711157;83;21051;-66
2022/10/13 10:00:23;;;;;;;17.75;7.37;;;;;;;12.49;64.33;101362.63;1664676;86;21115;-68
2022/10/13 10:03:19;;;;;;;21.45;7.62;;;;;;;12.53;64.46;101354.34;1661227;86;21191;-69
2022/10/13 10:05:57;;;;;;;20.85;6.72;;;;;;;12.58;64.44;101350.50;1664442;86;21225;-68
2022/10/13 10:08:54;;;;;;;21.70;7.62;;;;;;;12.61;64.38;101353.73;1663037;86;21075;-65
2022/10/13 10:11:37;;;;;;;14.80;6.03;;;;;;;12.64;64.23;101353.36;1662083;86;21060;-67
2022/10/13 10:14:27;;;;;;;15.93;6.42;;;;;;;12.68;63.93;101342.83;1662084;86;21125;-68
2022/10/13 10:17:18;;;;;;;19.02;6.40;;;;;;;12.71;63.79;101352.08;1665067;86;21102;-68
2022/10/13 10:20:05;;;;;;;23.45;6.42;;;;;;;12.74;63.83;101347.58;1661297;86;21962;-69
2022/10/13 10:23:14;;;;;;;14.05;5.70;;;;;;;12.77;63.57;101346.34;1661146;86;21060;-68
2022/10/13 10:25:50;;;;;;;21.87;5.95;;;;;;;12.80;63.46;101347.34;1652163;86;21090;-68
2022/10/13 10:28:56;;;;;;;11.57;4.97;;;;;;;12.81;63.27;101344.92;1668210;85;21511;-67
2022/10/13 10:32:06;;;;;;;15.88;5.55;;;;;;;12.82;63.13;101346.64;1640140;86;21570;-67
2022/10/13 10:34:43;;;;;;;15.40;5.45;;;;;;;12.81;63.02;101338.91;1688147;84;21048;-66
2022/10/13 10:37:37;;;;;;;16.12;5.87;;;;;;;12.84;62.98;101346.78;1703524;84;21028;-67
2022/10/13 10:40:56;;;;;;;15.23;6.08;;;;;;;12.87;63.02;101341.42;1689812;84;21047;-69
2022/10/13 10:43:39;;;;;;;15.83;4.95;;;;;;;12.87;62.93;101336.77;1666706;85;21096;-67
2022/10/13 10:46:19;;;;;;;18.65;5.40;;;;;;;12.89;62.97;101334.69;1658547;86;21075;-68
2022/10/13 10:48:54;;;;;;;16.10;5.60;;;;;;;12.90;62.79;101340.52;1658878;86;21386;-67
2022/10/13 10:51:28;;;;;;;16.67;5.28;;;;;;;12.92;62.71;101334.83;1658954;86;21793;-68
2022/10/13 10:54:08;;;;;;;11.88;4.55;;;;;;;12.92;62.63;101332.93;1654783;86;21062;-69
2022/10/13 10:56:41;;;;;;;19.10;5.72;;;;;;;12.94;62.38;101327.23;1663259;85;21065;-67
2022/10/13 10:59:39;;;;;;;14.23;4.83;;;;;;;12.93;62.38;101325.53;1655196;86;21020;-68
2022/10/13 11:02:30;;;;;;;20.45;5.42;;;;;;;12.95;62.28;101327.05;1644468;86;21505;-66
2022/10/13 11:05:02;;;;;;;14.20;5.35;;;;;;;12.95;62.48;101327.05;1656493;86;21098;-67
2022/10/13 11:07:47;;;;;;;15.55;5.20;;;;;;;12.95;62.44;101325.67;1618313;88;21080;-66
2022/10/13 11:10:20;;;;;;;14.15;5.80;;;;;;;12.98;62.57;101329.94;1641333;86;21040;-68
2022/10/13 11:12:55;;;;;;;12.07;4.45;;;;;;;12.98;62.37;101328.04;1655737;86;21055;-67
2022/10/13 11:15:32;;;;;;;12.20;4.35;;;;;;;13.01;62.28;101332.34;1646143;85;21119;-67
2022/10/13 11:18:06;;;;;;;14.75;3.95;;;;;;;13.03;62.09;101333.00;1708004;83;21055;-68
2022/10/13 11:20:47;;;;;;;11.18;3.45;;;;;;;13.04;62.04;101327.83;1686612;85;21071;-68
2022/10/13 11:23:26;;;;;;;12.93;4.05;;;;;;;13.07;61.96;101329.34;1656261;86;21081;-66
2022/10/13 11:26:21;;;;;;;13.75;4.28;;;;;;;13.05;61.83;101325.41;1705538;83;21497;-67
2022/10/13 11:28:51;;;;;;;12.30;4.65;;;;;;;13.04;61.87;101325.59;1704870;83;21529;-68
2022/10/13 11:31:27;;;;;;;10.20;3.60;;;;;;;13.00;62.12;101321.86;1687999;84;21058;-66
2022/10/13 11:34:01;;;;;;;13.03;3.60;;;;;;;12.99;62.14;101323.39;1713719;83;21074;-68
2022/10/13 11:36:55;;;;;;;13.00;4.25;;;;;;;12.97;61.98;101325.48;1721136;82;21034;-66
2022/10/13 11:39:29;;;;;;;10.50;3.87;;;;;;;12.94;62.01;101320.36;1700438;83;21073;-68
2022/10/13 11:42:31;;;;;;;16.20;3.80;;;;;;;12.89;62.24;101319.55;1704991;83;21102;-68
2022/10/13 11:45:05;;;;;;;12.05;3.98;;;;;;;12.90;62.41;101321.27;1709749;83;21460;-66
2022/10/13 11:47:46;;;;;;;16.55;4.67;;;;;;;12.92;62.47;101319.69;1716818;83;21098;-67
2022/10/13 11:50:38;;;;;;;11.70;5.05;;;;;;;12.93;62.51;101325.53;1697573;83;21054;-70